sensor_id;sensor_type;location;lat;lon;timestamp;P1;durP1;ratioP1;P2;durP2;ratioP2
74630;SDS011;63138;55.082;38.804;2023-04-01T00:00:59;14.07;;;6.35;;
74630;SDS011;63138;55.082;38.804;2023-04-01T00:03:26;15.07;;;6.53;;
74630;SDS011;63138;55.082;38.804;2023-04-01T00:05:57;16.00;;;7.13;;
74630;SDS011;63138;55.082;38.804;2023-04-01T00:08:26;16.45;;;7.47;;
74630;SDS011;63138;55.082;38.804;2023-04-01T00:11:03;15.50;;;7.18;;
74630;SDS011;63138;55.082;38.804;2023-04-01T00:13:30;18.60;;;9.07;;
74630;SDS011;63138;55.082;38.804;2023-04-01T00:15:56;18.93;;;7.50;;
74630;SDS011;63138;55.082;38.804;2023-04-01T00:18:22;12.98;;;6.43;;
74630;SDS011;63138;55.082;38.804;2023-04-01T00:20:50;19.13;;;9.32;;
74630;SDS011;63138;55.082;38.804;2023-04-01T00:23:18;12.45;;;5.80;;
74630;SDS011;63138;55.082;38.804;2023-04-01T00:25:47;10.57;;;5.17;;
74630;SDS011;63138;55.082;38.804;2023-04-01T00:28:18;13.32;;;6.15;;
74630;SDS011;63138;55.082;38.804;2023-04-01T00:30:47;14.68;;;6.55;;
74630;SDS011;63138;55.082;38.804;2023-04-01T00:33:17;14.88;;;5.95;;
74630;SDS011;63138;55.082;38.804;2023-04-01T00:35:43;15.97;;;7.53;;
74630;SDS011;63138;55.082;38.804;2023-04-01T00:38:28;14.70;;;6.97;;
74630;SDS011;63138;55.082;38.804;2023-04-01T00:40:57;10.85;;;5.65;;
74630;SDS011;63138;55.082;38.804;2023-04-01T00:43:24;13.98;;;7.00;;
74630;SDS011;63138;55.082;38.804;2023-04-01T00:45:50;13.65;;;7.22;;
74630;SDS011;63138;55.082;38.804;2023-04-01T00:48:22;16.83;;;6.90;;
74630;SDS011;63138;55.082;38.804;2023-04-01T00:50:52;13.38;;;6.43;;
74630;SDS011;63138;55.082;38.804;2023-04-01T00:53:22;12.88;;;6.07;;
74630;SDS011;63138;55.082;38.804;2023-04-01T00:55:54;18.05;;;8.43;;
74630;SDS011;63138;55.082;38.804;2023-04-01T00:58:26;15.20;;;7.18;;
74630;SDS011;63138;55.082;38.804;2023-04-01T01:00:55;14.17;;;7.30;;
74630;SDS011;63138;55.082;38.804;2023-04-01T01:03:24;20.00;;;8.35;;
74630;SDS011;63138;55.082;38.804;2023-04-01T01:14:10;19.53;;;7.40;;
74630;SDS011;63138;55.082;38.804;2023-04-01T01:20:12;17.15;;;8.43;;
74630;SDS011;63138;55.082;38.804;2023-04-01T01:38:21;27.02;;;10.45;;
74630;SDS011;63138;55.082;38.804;2023-04-01T01:40:59;17.48;;;8.07;;
74630;SDS011;63138;55.082;38.804;2023-04-01T01:43:33;26.53;;;10.80;;
74630;SDS011;63138;55.082;38.804;2023-04-01T01:46:10;27.10;;;9.98;;
74630;SDS011;63138;55.082;38.804;2023-04-01T01:48:39;20.50;;;8.75;;
74630;SDS011;63138;55.082;38.804;2023-04-01T01:51:08;24.60;;;10.18;;
74630;SDS011;63138;55.082;38.804;2023-04-01T01:53:35;23.10;;;11.10;;
74630;SDS011;63138;55.082;38.804;2023-04-01T01:56:02;20.87;;;9.37;;
74630;SDS011;63138;55.082;38.804;2023-04-01T01:58:58;16.58;;;9.00;;
74630;SDS011;63138;55.082;38.804;2023-04-01T02:01:31;18.63;;;9.00;;
74630;SDS011;63138;55.082;38.804;2023-04-01T02:04:09;25.75;;;11.75;;
74630;SDS011;63138;55.082;38.804;2023-04-01T02:06:37;29.88;;;11.15;;
74630;SDS011;63138;55.082;38.804;2023-04-01T02:09:08;29.60;;;10.43;;
74630;SDS011;63138;55.082;38.804;2023-04-01T02:11:45;27.38;;;9.23;;
74630;SDS011;63138;55.082;38.804;2023-04-01T02:14:17;30.63;;;11.30;;
74630;SDS011;63138;55.082;38.804;2023-04-01T02:19:24;24.20;;;11.30;;
74630;SDS011;63138;55.082;38.804;2023-04-01T02:21:57;22.60;;;9.73;;
74630;SDS011;63138;55.082;38.804;2023-04-01T02:24:28;27.15;;;12.13;;
74630;SDS011;63138;55.082;38.804;2023-04-01T02:27:00;29.65;;;11.38;;
74630;SDS011;63138;55.082;38.804;2023-04-01T02:29:27;33.17;;;12.45;;
74630;SDS011;63138;55.082;38.804;2023-04-01T02:31:53;25.85;;;11.27;;
74630;SDS011;63138;55.082;38.804;2023-04-01T02:34:20;26.07;;;10.00;;
74630;SDS011;63138;55.082;38.804;2023-04-01T02:36:48;24.10;;;10.73;;
74630;SDS011;63138;55.082;38.804;2023-04-01T02:39:15;32.47;;;12.63;;
74630;SDS011;63138;55.082;38.804;2023-04-01T02:41:42;23.35;;;10.32;;
74630;SDS011;63138;55.082;38.804;2023-04-01T02:44:11;32.72;;;12.50;;
74630;SDS011;63138;55.082;38.804;2023-04-01T02:46:48;31.50;;;11.97;;
74630;SDS011;63138;55.082;38.804;2023-04-01T02:49:17;29.92;;;11.73;;
74630;SDS011;63138;55.082;38.804;2023-04-01T02:51:50;24.17;;;9.73;;
74630;SDS011;63138;55.082;38.804;2023-04-01T02:54:17;31.40;;;13.40;;
74630;SDS011;63138;55.082;38.804;2023-04-01T02:56:44;27.08;;;9.00;;
74630;SDS011;63138;55.082;38.804;2023-04-01T02:59:10;25.00;;;11.23;;
74630;SDS011;63138;55.082;38.804;2023-04-01T03:01:41;32.92;;;13.00;;
74630;SDS011;63138;55.082;38.804;2023-04-01T03:06:59;28.55;;;11.57;;
74630;SDS011;63138;55.082;38.804;2023-04-01T03:09:52;35.85;;;13.25;;
74630;SDS011;63138;55.082;38.804;2023-04-01T03:15:47;34.80;;;13.93;;
74630;SDS011;63138;55.082;38.804;2023-04-01T03:18:13;32.75;;;13.60;;
74630;SDS011;63138;55.082;38.804;2023-04-01T03:20:39;36.17;;;13.27;;
74630;SDS011;63138;55.082;38.804;2023-04-01T03:23:07;30.20;;;10.57;;
74630;SDS011;63138;55.082;38.804;2023-04-01T03:25:33;34.17;;;13.53;;
74630;SDS011;63138;55.082;38.804;2023-04-01T03:28:01;37.67;;;14.20;;
74630;SDS011;63138;55.082;38.804;2023-04-01T03:30:33;30.80;;;12.35;;
74630;SDS011;63138;55.082;38.804;2023-04-01T03:33:25;33.45;;;12.60;;
74630;SDS011;63138;55.082;38.804;2023-04-01T03:35:53;34.00;;;13.63;;
74630;SDS011;63138;55.082;38.804;2023-04-01T03:38:22;25.30;;;9.67;;
74630;SDS011;63138;55.082;38.804;2023-04-01T03:40:49;29.10;;;12.38;;
74630;SDS011;63138;55.082;38.804;2023-04-01T03:43:15;28.27;;;12.02;;
74630;SDS011;63138;55.082;38.804;2023-04-01T03:45:49;23.25;;;10.68;;
74630;SDS011;63138;55.082;38.804;2023-04-01T03:48:16;23.75;;;11.18;;
74630;SDS011;63138;55.082;38.804;2023-04-01T03:51:08;29.40;;;12.13;;
74630;SDS011;63138;55.082;38.804;2023-04-01T03:53:34;28.35;;;11.25;;
74630;SDS011;63138;55.082;38.804;2023-04-01T03:56:07;29.90;;;12.25;;
74630;SDS011;63138;55.082;38.804;2023-04-01T03:58:35;41.28;;;13.55;;
74630;SDS011;63138;55.082;38.804;2023-04-01T04:01:13;23.67;;;9.73;;
74630;SDS011;63138;55.082;38.804;2023-04-01T04:03:45;31.87;;;12.37;;
74630;SDS011;63138;55.082;38.804;2023-04-01T04:06:13;26.67;;;11.02;;
74630;SDS011;63138;55.082;38.804;2023-04-01T04:08:40;27.85;;;10.32;;
74630;SDS011;63138;55.082;38.804;2023-04-01T04:11:07;27.17;;;11.70;;
74630;SDS011;63138;55.082;38.804;2023-04-01T04:13:35;28.67;;;12.20;;
74630;SDS011;63138;55.082;38.804;2023-04-01T04:16:03;34.53;;;13.03;;
74630;SDS011;63138;55.082;38.804;2023-04-01T04:18:33;34.88;;;14.23;;
74630;SDS011;63138;55.082;38.804;2023-04-01T04:20:59;38.67;;;13.82;;
74630;SDS011;63138;55.082;38.804;2023-04-01T04:23:28;36.13;;;14.20;;
74630;SDS011;63138;55.082;38.804;2023-04-01T04:28:58;36.30;;;14.03;;
74630;SDS011;63138;55.082;38.804;2023-04-01T04:31:27;25.38;;;10.38;;
74630;SDS011;63138;55.082;38.804;2023-04-01T04:33:55;33.03;;;12.45;;
74630;SDS011;63138;55.082;38.804;2023-04-01T04:36:22;34.13;;;14.10;;
74630;SDS011;63138;55.082;38.804;2023-04-01T04:38:49;38.15;;;13.77;;
74630;SDS011;63138;55.082;38.804;2023-04-01T04:41:17;35.43;;;14.10;;
74630;SDS011;63138;55.082;38.804;2023-04-01T04:43:50;33.13;;;14.25;;
74630;SDS011;63138;55.082;38.804;2023-04-01T04:46:19;33.42;;;14.05;;
74630;SDS011;63138;55.082;38.804;2023-04-01T04:48:47;37.22;;;15.30;;
74630;SDS011;63138;55.082;38.804;2023-04-01T04:51:15;36.03;;;14.45;;
74630;SDS011;63138;55.082;38.804;2023-04-01T04:56:47;40.53;;;14.35;;
74630;SDS011;63138;55.082;38.804;2023-04-01T04:59:14;30.98;;;13.05;;
74630;SDS011;63138;55.082;38.804;2023-04-01T05:01:46;31.73;;;13.27;;
74630;SDS011;63138;55.082;38.804;2023-04-01T05:04:12;34.60;;;12.88;;
74630;SDS011;63138;55.082;38.804;2023-04-01T05:06:40;30.47;;;12.30;;
74630;SDS011;63138;55.082;38.804;2023-04-01T05:09:07;36.92;;;13.38;;
74630;SDS011;63138;55.082;38.804;2023-04-01T05:11:36;37.30;;;14.63;;
74630;SDS011;63138;55.082;38.804;2023-04-01T05:14:03;25.17;;;11.77;;
74630;SDS011;63138;55.082;38.804;2023-04-01T05:16:31;32.55;;;11.68;;
74630;SDS011;63138;55.082;38.804;2023-04-01T05:18:59;29.57;;;11.53;;
74630;SDS011;63138;55.082;38.804;2023-04-01T05:21:27;35.20;;;13.30;;
74630;SDS011;63138;55.082;38.804;2023-04-01T05:23:55;32.58;;;12.00;;
74630;SDS011;63138;55.082;38.804;2023-04-01T05:26:22;29.15;;;11.10;;
74630;SDS011;63138;55.082;38.804;2023-04-01T05:28:48;32.72;;;13.07;;
74630;SDS011;63138;55.082;38.804;2023-04-01T05:31:15;23.80;;;10.10;;
74630;SDS011;63138;55.082;38.804;2023-04-01T05:33:44;23.00;;;11.38;;
74630;SDS011;63138;55.082;38.804;2023-04-01T05:36:34;23.15;;;11.60;;
74630;SDS011;63138;55.082;38.804;2023-04-01T05:39:01;23.90;;;9.07;;
74630;SDS011;63138;55.082;38.804;2023-04-01T05:41:27;26.95;;;11.23;;
74630;SDS011;63138;55.082;38.804;2023-04-01T05:44:21;21.80;;;8.97;;
74630;SDS011;63138;55.082;38.804;2023-04-01T05:47:17;28.65;;;11.73;;
74630;SDS011;63138;55.082;38.804;2023-04-01T05:49:43;21.38;;;9.05;;
74630;SDS011;63138;55.082;38.804;2023-04-01T05:52:10;24.58;;;10.00;;
74630;SDS011;63138;55.082;38.804;2023-04-01T05:54:36;20.35;;;8.98;;
74630;SDS011;63138;55.082;38.804;2023-04-01T05:57:02;24.93;;;10.53;;
74630;SDS011;63138;55.082;38.804;2023-04-01T05:59:28;24.08;;;10.20;;
74630;SDS011;63138;55.082;38.804;2023-04-01T06:02:01;24.55;;;10.20;;
74630;SDS011;63138;55.082;38.804;2023-04-01T06:04:32;21.08;;;9.88;;
74630;SDS011;63138;55.082;38.804;2023-04-01T06:07:16;19.90;;;9.80;;
74630;SDS011;63138;55.082;38.804;2023-04-01T06:15:53;17.40;;;7.70;;
74630;SDS011;63138;55.082;38.804;2023-04-01T06:18:38;17.55;;;7.88;;
74630;SDS011;63138;55.082;38.804;2023-04-01T06:21:12;19.58;;;9.15;;
74630;SDS011;63138;55.082;38.804;2023-04-01T06:32:58;13.35;;;7.60;;
74630;SDS011;63138;55.082;38.804;2023-04-01T06:41:15;12.07;;;6.80;;
74630;SDS011;63138;55.082;38.804;2023-04-01T06:54:09;16.83;;;8.93;;
74630;SDS011;63138;55.082;38.804;2023-04-01T06:57:42;14.80;;;8.48;;
74630;SDS011;63138;55.082;38.804;2023-04-01T07:03:05;12.80;;;7.80;;
74630;SDS011;63138;55.082;38.804;2023-04-01T07:05:35;12.18;;;6.80;;
74630;SDS011;63138;55.082;38.804;2023-04-01T07:08:04;12.13;;;8.03;;
74630;SDS011;63138;55.082;38.804;2023-04-01T07:13:45;8.98;;;5.70;;
74630;SDS011;63138;55.082;38.804;2023-04-01T07:16:47;7.32;;;5.43;;
74630;SDS011;63138;55.082;38.804;2023-04-01T07:19:26;8.85;;;6.20;;
74630;SDS011;63138;55.082;38.804;2023-04-01T07:22:20;10.00;;;6.60;;
74630;SDS011;63138;55.082;38.804;2023-04-01T07:25:22;9.45;;;6.22;;
74630;SDS011;63138;55.082;38.804;2023-04-01T07:28:11;9.23;;;6.35;;
74630;SDS011;63138;55.082;38.804;2023-04-01T07:31:06;9.95;;;6.18;;
74630;SDS011;63138;55.082;38.804;2023-04-01T07:44:23;7.22;;;5.68;;
74630;SDS011;63138;55.082;38.804;2023-04-01T07:47:41;8.10;;;6.28;;
74630;SDS011;63138;55.082;38.804;2023-04-01T07:50:27;8.13;;;5.10;;
74630;SDS011;63138;55.082;38.804;2023-04-01T08:03:31;6.60;;;5.37;;
74630;SDS011;63138;55.082;38.804;2023-04-01T08:15:37;6.30;;;4.78;;
74630;SDS011;63138;55.082;38.804;2023-04-01T08:18:39;7.63;;;6.27;;
74630;SDS011;63138;55.082;38.804;2023-04-01T08:21:16;8.20;;;5.50;;
74630;SDS011;63138;55.082;38.804;2023-04-01T08:23:57;8.48;;;6.72;;
74630;SDS011;63138;55.082;38.804;2023-04-01T08:26:34;7.60;;;5.38;;
74630;SDS011;63138;55.082;38.804;2023-04-01T08:29:20;9.30;;;6.68;;
74630;SDS011;63138;55.082;38.804;2023-04-01T08:31:57;8.30;;;5.50;;
74630;SDS011;63138;55.082;38.804;2023-04-01T08:35:20;9.63;;;6.80;;
74630;SDS011;63138;55.082;38.804;2023-04-01T08:38:26;6.70;;;4.82;;
74630;SDS011;63138;55.082;38.804;2023-04-01T08:40:58;7.60;;;5.05;;
74630;SDS011;63138;55.082;38.804;2023-04-01T08:44:22;6.70;;;4.70;;
74630;SDS011;63138;55.082;38.804;2023-04-01T08:56:05;7.20;;;4.72;;
74630;SDS011;63138;55.082;38.804;2023-04-01T09:12:48;10.50;;;6.53;;
74630;SDS011;63138;55.082;38.804;2023-04-01T09:21:02;13.63;;;6.40;;
74630;SDS011;63138;55.082;38.804;2023-04-01T09:26:34;8.60;;;6.15;;
74630;SDS011;63138;55.082;38.804;2023-04-01T09:32:42;10.45;;;7.05;;
74630;SDS011;63138;55.082;38.804;2023-04-01T10:19:55;13.48;;;8.73;;
74630;SDS011;63138;55.082;38.804;2023-04-01T10:40:47;10.55;;;7.63;;
74630;SDS011;63138;55.082;38.804;2023-04-01T11:26:36;9.38;;;6.35;;
74630;SDS011;63138;55.082;38.804;2023-04-01T11:29:49;12.10;;;6.53;;
74630;SDS011;63138;55.082;38.804;2023-04-01T11:32:46;7.50;;;5.38;;
74630;SDS011;63138;55.082;38.804;2023-04-01T11:38:24;8.95;;;5.90;;
74630;SDS011;63138;55.082;38.804;2023-04-01T11:52:30;10.38;;;6.57;;
74630;SDS011;63138;55.082;38.804;2023-04-01T11:55:06;12.60;;;7.38;;
74630;SDS011;63138;55.082;38.804;2023-04-01T12:09:52;8.70;;;5.03;;
74630;SDS011;63138;55.082;38.804;2023-04-01T12:12:48;14.50;;;6.67;;
74630;SDS011;63138;55.082;38.804;2023-04-01T12:18:14;12.85;;;8.05;;
74630;SDS011;63138;55.082;38.804;2023-04-01T12:37:54;12.15;;;7.53;;
74630;SDS011;63138;55.082;38.804;2023-04-01T12:43:02;10.80;;;6.88;;
74630;SDS011;63138;55.082;38.804;2023-04-01T12:45:45;12.40;;;7.72;;
74630;SDS011;63138;55.082;38.804;2023-04-01T12:48:58;11.57;;;8.48;;
74630;SDS011;63138;55.082;38.804;2023-04-01T13:06:07;17.52;;;11.25;;
74630;SDS011;63138;55.082;38.804;2023-04-01T13:17:50;19.10;;;12.88;;
74630;SDS011;63138;55.082;38.804;2023-04-01T13:23:38;22.37;;;15.03;;
74630;SDS011;63138;55.082;38.804;2023-04-01T13:26:17;18.33;;;13.70;;
74630;SDS011;63138;55.082;38.804;2023-04-01T13:34:34;11.10;;;8.05;;
74630;SDS011;63138;55.082;38.804;2023-04-01T13:43:42;13.35;;;9.63;;
74630;SDS011;63138;55.082;38.804;2023-04-01T13:54:46;17.02;;;9.98;;
74630;SDS011;63138;55.082;38.804;2023-04-01T14:02:44;22.83;;;12.37;;
74630;SDS011;63138;55.082;38.804;2023-04-01T14:05:48;31.85;;;18.27;;
74630;SDS011;63138;55.082;38.804;2023-04-01T14:18:00;23.67;;;13.27;;
74630;SDS011;63138;55.082;38.804;2023-04-01T14:23:35;12.73;;;8.77;;
74630;SDS011;63138;55.082;38.804;2023-04-01T14:30:34;14.40;;;7.35;;
74630;SDS011;63138;55.082;38.804;2023-04-01T14:32:50;12.50;;;8.43;;
74630;SDS011;63138;55.082;38.804;2023-04-01T14:35:29;12.15;;;8.57;;
74630;SDS011;63138;55.082;38.804;2023-04-01T14:43:21;12.65;;;8.50;;
74630;SDS011;63138;55.082;38.804;2023-04-01T14:51:33;11.93;;;7.75;;
74630;SDS011;63138;55.082;38.804;2023-04-01T14:59:39;10.53;;;7.53;;
74630;SDS011;63138;55.082;38.804;2023-04-01T15:05:42;12.18;;;7.38;;
74630;SDS011;63138;55.082;38.804;2023-04-01T15:14:48;11.60;;;7.77;;
74630;SDS011;63138;55.082;38.804;2023-04-01T15:17:42;13.02;;;7.57;;
74630;SDS011;63138;55.082;38.804;2023-04-01T15:20:43;10.45;;;6.88;;
74630;SDS011;63138;55.082;38.804;2023-04-01T15:46:56;10.80;;;7.53;;
74630;SDS011;63138;55.082;38.804;2023-04-01T16:00:52;17.45;;;9.63;;
74630;SDS011;63138;55.082;38.804;2023-04-01T16:12:07;14.80;;;8.93;;
74630;SDS011;63138;55.082;38.804;2023-04-01T16:22:42;15.33;;;8.53;;
74630;SDS011;63138;55.082;38.804;2023-04-01T16:36:43;13.40;;;7.90;;
74630;SDS011;63138;55.082;38.804;2023-04-01T16:45:19;15.93;;;7.07;;
74630;SDS011;63138;55.082;38.804;2023-04-01T16:47:56;19.88;;;8.85;;
74630;SDS011;63138;55.082;38.804;2023-04-01T16:50:39;15.27;;;8.07;;
74630;SDS011;63138;55.082;38.804;2023-04-01T16:53:43;12.57;;;8.25;;
74630;SDS011;63138;55.082;38.804;2023-04-01T16:56:21;19.40;;;11.13;;
74630;SDS011;63138;55.082;38.804;2023-04-01T16:59:21;17.42;;;9.82;;
74630;SDS011;63138;55.082;38.804;2023-04-01T17:01:57;20.58;;;11.48;;
74630;SDS011;63138;55.082;38.804;2023-04-01T17:24:50;21.98;;;12.30;;
74630;SDS011;63138;55.082;38.804;2023-04-01T17:27:59;20.25;;;11.30;;
74630;SDS011;63138;55.082;38.804;2023-04-01T17:36:31;25.90;;;12.70;;
74630;SDS011;63138;55.082;38.804;2023-04-01T17:39:38;24.67;;;13.18;;
74630;SDS011;63138;55.082;38.804;2023-04-01T17:45:21;24.95;;;13.18;;
74630;SDS011;63138;55.082;38.804;2023-04-01T17:48:18;24.97;;;12.60;;
74630;SDS011;63138;55.082;38.804;2023-04-01T17:54:21;23.27;;;11.55;;
74630;SDS011;63138;55.082;38.804;2023-04-01T18:08:49;24.67;;;13.23;;
74630;SDS011;63138;55.082;38.804;2023-04-01T18:22:44;22.73;;;12.32;;
74630;SDS011;63138;55.082;38.804;2023-04-01T18:25:33;20.92;;;11.07;;
74630;SDS011;63138;55.082;38.804;2023-04-01T18:31:19;20.40;;;10.27;;
74630;SDS011;63138;55.082;38.804;2023-04-01T18:37:22;18.95;;;12.20;;
74630;SDS011;63138;55.082;38.804;2023-04-01T18:43:32;22.73;;;11.80;;
74630;SDS011;63138;55.082;38.804;2023-04-01T18:48:51;20.15;;;11.75;;
74630;SDS011;63138;55.082;38.804;2023-04-01T18:51:20;23.67;;;12.45;;
74630;SDS011;63138;55.082;38.804;2023-04-01T18:53:52;22.05;;;11.43;;
74630;SDS011;63138;55.082;38.804;2023-04-01T18:56:34;27.20;;;15.27;;
74630;SDS011;63138;55.082;38.804;2023-04-01T18:59:10;20.50;;;10.87;;
74630;SDS011;63138;55.082;38.804;2023-04-01T19:06:53;26.23;;;12.65;;
74630;SDS011;63138;55.082;38.804;2023-04-01T19:09:26;16.50;;;9.98;;
74630;SDS011;63138;55.082;38.804;2023-04-01T19:12:07;20.43;;;11.37;;
74630;SDS011;63138;55.082;38.804;2023-04-01T19:17:44;24.70;;;12.38;;
74630;SDS011;63138;55.082;38.804;2023-04-01T19:20:34;22.98;;;13.07;;
74630;SDS011;63138;55.082;38.804;2023-04-01T19:27:06;21.80;;;11.53;;
74630;SDS011;63138;55.082;38.804;2023-04-01T19:29:17;16.95;;;10.85;;
74630;SDS011;63138;55.082;38.804;2023-04-01T19:40:58;23.70;;;12.70;;
74630;SDS011;63138;55.082;38.804;2023-04-01T19:47:11;25.67;;;13.27;;
74630;SDS011;63138;55.082;38.804;2023-04-01T19:53:05;17.80;;;9.75;;
74630;SDS011;63138;55.082;38.804;2023-04-01T19:58:45;19.42;;;10.90;;
74630;SDS011;63138;55.082;38.804;2023-04-01T20:01:23;24.92;;;13.98;;
74630;SDS011;63138;55.082;38.804;2023-04-01T20:03:58;27.23;;;13.40;;
74630;SDS011;63138;55.082;38.804;2023-04-01T20:07:16;21.20;;;11.07;;
74630;SDS011;63138;55.082;38.804;2023-04-01T20:21:18;18.73;;;10.20;;
74630;SDS011;63138;55.082;38.804;2023-04-01T20:24:41;26.03;;;13.70;;
74630;SDS011;63138;55.082;38.804;2023-04-01T20:27:01;17.50;;;11.50;;
74630;SDS011;63138;55.082;38.804;2023-04-01T20:40:37;27.58;;;13.95;;
74630;SDS011;63138;55.082;38.804;2023-04-01T20:52:15;31.40;;;15.40;;
74630;SDS011;63138;55.082;38.804;2023-04-01T21:00:07;20.40;;;12.40;;
74630;SDS011;63138;55.082;38.804;2023-04-01T21:03:10;33.17;;;16.00;;
74630;SDS011;63138;55.082;38.804;2023-04-01T21:05:45;33.40;;;15.97;;
74630;SDS011;63138;55.082;38.804;2023-04-01T21:08:50;39.25;;;16.98;;
74630;SDS011;63138;55.082;38.804;2023-04-01T21:14:32;25.30;;;13.18;;
74630;SDS011;63138;55.082;38.804;2023-04-01T21:47:50;37.87;;;17.10;;
74630;SDS011;63138;55.082;38.804;2023-04-01T22:07:21;31.15;;;15.68;;
74630;SDS011;63138;55.082;38.804;2023-04-01T22:12:41;35.50;;;15.60;;
74630;SDS011;63138;55.082;38.804;2023-04-01T22:18:15;28.83;;;13.80;;
74630;SDS011;63138;55.082;38.804;2023-04-01T22:32:44;34.38;;;17.35;;
74630;SDS011;63138;55.082;38.804;2023-04-01T22:41:32;34.50;;;16.75;;
74630;SDS011;63138;55.082;38.804;2023-04-01T22:53:47;28.42;;;16.20;;
74630;SDS011;63138;55.082;38.804;2023-04-01T22:56:47;31.05;;;16.33;;
74630;SDS011;63138;55.082;38.804;2023-04-01T23:01:52;31.45;;;15.07;;
74630;SDS011;63138;55.082;38.804;2023-04-01T23:04:31;39.33;;;18.02;;
74630;SDS011;63138;55.082;38.804;2023-04-01T23:07:00;28.27;;;16.55;;
74630;SDS011;63138;55.082;38.804;2023-04-01T23:09:35;33.03;;;17.58;;
74630;SDS011;63138;55.082;38.804;2023-04-01T23:12:05;49.93;;;20.43;;
74630;SDS011;63138;55.082;38.804;2023-04-01T23:14:38;41.33;;;18.50;;
74630;SDS011;63138;55.082;38.804;2023-04-01T23:36:29;43.25;;;20.40;;
74630;SDS011;63138;55.082;38.804;2023-04-01T23:38:41;35.73;;;18.50;;
74630;SDS011;63138;55.082;38.804;2023-04-01T23:41:20;41.63;;;17.52;;
74630;SDS011;63138;55.082;38.804;2023-04-01T23:44:00;38.38;;;17.58;;
74630;SDS011;63138;55.082;38.804;2023-04-01T23:46:26;42.33;;;20.17;;
74630;SDS011;63138;55.082;38.804;2023-04-01T23:48:56;38.17;;;17.02;;
74630;SDS011;63138;55.082;38.804;2023-04-01T23:51:23;40.83;;;18.53;;
74630;SDS011;63138;55.082;38.804;2023-04-01T23:53:59;30.27;;;15.40;;
74630;SDS011;63138;55.082;38.804;2023-04-01T23:56:38;36.50;;;17.45;;
74630;SDS011;63138;55.082;38.804;2023-04-01T23:59:34;35.03;;;15.30;;
